createdAt,value
2023-02-23T00:00:34.114Z,0.60
2023-02-23T00:03:03.968Z,0.50
2023-02-23T00:05:38.230Z,0.40
2023-02-23T00:08:07.871Z,0.40
2023-02-23T00:10:37.187Z,0.40
2023-02-23T00:13:08.022Z,0.50
2023-02-23T00:15:38.361Z,0.60
2023-02-23T00:18:07.726Z,0.60
2023-02-23T00:20:37.631Z,0.60
2023-02-23T00:23:06.931Z,0.60
2023-02-23T00:25:39.118Z,0.50
2023-02-23T00:28:10.402Z,0.60
2023-02-23T00:30:39.926Z,0.60
2023-02-23T00:33:09.588Z,0.70
2023-02-23T00:35:39.029Z,0.70
2023-02-23T00:38:09.336Z,0.60
2023-02-23T00:40:42.596Z,0.70
2023-02-23T00:43:15.357Z,0.70
2023-02-23T00:45:44.753Z,0.60
2023-02-23T00:48:14.122Z,0.60
2023-02-23T00:50:43.738Z,0.60
2023-02-23T00:53:13.117Z,0.60
2023-02-23T00:55:43.288Z,0.60
2023-02-23T00:58:14.360Z,0.60
2023-02-23T01:00:44.447Z,0.60
2023-02-23T01:03:13.676Z,0.70
2023-02-23T01:05:44.181Z,0.60
2023-02-23T01:08:15.633Z,0.70
2023-02-23T01:10:52.455Z,0.70
2023-02-23T01:13:23.741Z,0.60
2023-02-23T01:15:53.776Z,0.50
2023-02-23T01:18:23.258Z,0.60
2023-02-23T01:20:52.544Z,0.60
2023-02-23T01:23:23.006Z,0.50
2023-02-23T01:25:52.310Z,0.50
2023-02-23T01:28:23.736Z,0.40
2023-02-23T01:30:53.001Z,0.40
2023-02-23T01:33:22.404Z,0.30
2023-02-23T01:35:59.965Z,0.30
2023-02-23T01:38:29.553Z,0.40
2023-02-23T01:40:58.960Z,0.40
2023-02-23T01:43:29.809Z,0.40
2023-02-23T01:45:59.818Z,0.40
2023-02-23T01:48:32.738Z,0.30
2023-02-23T01:51:05.399Z,0.30
2023-02-23T01:53:38.434Z,0.30
2023-02-23T01:56:12.201Z,0.40
2023-02-23T01:58:46.569Z,0.40
2023-02-23T02:01:16.565Z,0.40
2023-02-23T02:03:51.129Z,0.40
2023-02-23T02:06:23.651Z,0.30
2023-02-23T02:08:57.828Z,0.20
2023-02-23T02:11:31.092Z,0.20
2023-02-23T02:14:04.046Z,0.20
2023-02-23T02:17:02.731Z,0.20
2023-02-23T02:20:13.254Z,0.10
2023-02-23T02:22:56.141Z,0.10
2023-02-23T02:25:36.758Z,0.10
2023-02-23T02:28:31.083Z,0.10
2023-02-23T02:31:45.797Z,0.10
2023-02-23T02:34:44.310Z,0.00
2023-02-23T02:37:37.974Z,0.10
2023-02-23T02:40:18.609Z,0.10
2023-02-23T02:43:08.950Z,0.00
2023-02-23T02:45:49.740Z,0.10
2023-02-23T02:48:27.072Z,0.10
2023-02-23T02:50:59.648Z,0.10
2023-02-23T02:53:41.180Z,0.10
2023-02-23T02:56:11.487Z,0.20
2023-02-23T02:58:43.811Z,0.20
2023-02-23T03:01:34.019Z,0.10
2023-02-23T03:04:36.208Z,0.10
2023-02-23T03:07:29.569Z,0.10
2023-02-23T03:10:27.187Z,0.00
2023-02-23T03:13:22.945Z,0.00
2023-02-23T03:16:19.084Z,0.00
2023-02-23T03:19:24.300Z,0.00
2023-02-23T03:22:15.970Z,-0.10
2023-02-23T03:25:08.452Z,-0.10
2023-02-23T03:28:04.308Z,-0.10
2023-02-23T03:30:57.507Z,0.00
2023-02-23T03:33:51.865Z,0.00
2023-02-23T03:36:44.935Z,0.10
2023-02-23T03:39:41.075Z,0.00
2023-02-23T03:42:32.127Z,-0.10
2023-02-23T03:45:24.759Z,-0.10
2023-02-23T03:48:13.974Z,-0.10
2023-02-23T03:51:10.283Z,-0.20
2023-02-23T03:54:05.010Z,0.00
2023-02-23T03:56:54.665Z,0.00
2023-02-23T03:59:45.973Z,0.10
2023-02-23T04:02:36.446Z,0.10
2023-02-23T04:05:28.443Z,0.00
2023-02-23T04:08:16.699Z,0.20
2023-02-23T04:11:09.471Z,0.20
2023-02-23T04:13:40.415Z,0.20
2023-02-23T04:16:11.834Z,0.30
2023-02-23T04:18:42.949Z,0.30
2023-02-23T04:21:12.312Z,0.30
2023-02-23T04:23:42.882Z,0.30
2023-02-23T04:26:12.205Z,0.30
2023-02-23T04:28:41.483Z,0.30
2023-02-23T04:31:10.752Z,0.40
2023-02-23T04:33:41.953Z,0.30
2023-02-23T04:36:11.219Z,0.30
2023-02-23T04:38:40.504Z,0.40
2023-02-23T04:41:09.891Z,0.50
2023-02-23T04:43:39.208Z,0.40
2023-02-23T04:46:08.644Z,0.40
2023-02-23T04:48:37.977Z,0.50
2023-02-23T04:51:09.021Z,0.70
2023-02-23T04:53:39.570Z,0.50
2023-02-23T04:56:09.412Z,0.50
2023-02-23T04:58:38.704Z,0.50
2023-02-23T05:01:10.082Z,0.50
2023-02-23T05:03:39.547Z,0.50
2023-02-23T05:06:10.285Z,0.50
2023-02-23T05:08:39.455Z,0.50
2023-02-23T05:11:09.263Z,0.50
2023-02-23T05:13:38.850Z,0.60
2023-02-23T05:16:09.259Z,0.50
2023-02-23T05:18:38.515Z,0.50
2023-02-23T05:21:10.513Z,0.50
2023-02-23T05:23:40.118Z,0.40
2023-02-23T05:26:11.406Z,0.50
2023-02-23T05:28:42.484Z,0.50
2023-02-23T05:31:12.730Z,0.50
2023-02-23T05:33:43.898Z,0.60
2023-02-23T05:36:17.444Z,0.60
2023-02-23T05:38:48.063Z,0.70
2023-02-23T05:41:20.110Z,0.70
2023-02-23T05:43:51.399Z,0.80
2023-02-23T05:46:24.411Z,0.80
2023-02-23T05:48:57.472Z,0.70
2023-02-23T05:51:29.402Z,0.70
2023-02-23T05:53:58.686Z,0.80
2023-02-23T05:56:28.315Z,0.90
2023-02-23T05:58:59.088Z,0.90
2023-02-23T06:01:29.650Z,0.90
2023-02-23T06:03:58.896Z,1.00
2023-02-23T06:06:29.748Z,1.00
2023-02-23T06:08:59.085Z,1.00
2023-02-23T06:11:28.611Z,1.00
2023-02-23T06:14:00.858Z,1.00
2023-02-23T06:16:30.456Z,1.00
2023-02-23T06:18:59.931Z,1.00
2023-02-23T06:21:31.286Z,1.00
2023-02-23T06:24:01.233Z,1.00
2023-02-23T06:26:31.363Z,1.20
2023-02-23T06:29:00.913Z,1.20
2023-02-23T06:31:30.889Z,1.30
2023-02-23T06:34:00.371Z,1.30
2023-02-23T06:36:31.980Z,1.20
2023-02-23T06:39:01.926Z,1.30
2023-02-23T06:41:31.786Z,1.40
2023-02-23T06:44:01.163Z,1.50
2023-02-23T06:46:30.476Z,1.50
2023-02-23T06:49:00.135Z,1.70
2023-02-23T06:51:31.000Z,1.70
2023-02-23T06:54:00.391Z,1.70
2023-02-23T06:56:29.731Z,1.70
2023-02-23T06:58:58.910Z,1.80
2023-02-23T07:01:28.183Z,1.70
2023-02-23T07:03:57.719Z,1.90
2023-02-23T07:06:27.075Z,2.00
2023-02-23T07:09:00.705Z,1.90
2023-02-23T07:11:30.128Z,2.00
2023-02-23T07:14:00.015Z,2.10
2023-02-23T07:16:29.861Z,2.10
2023-02-23T07:18:59.094Z,1.90
2023-02-23T07:21:28.555Z,2.00
2023-02-23T07:23:57.869Z,2.10
2023-02-23T07:26:28.684Z,2.10
2023-02-23T07:28:58.077Z,2.20
2023-02-23T07:31:27.687Z,2.10
2023-02-23T07:33:57.336Z,2.30
2023-02-23T07:36:26.853Z,2.40
2023-02-23T07:38:56.289Z,2.40
2023-02-23T07:41:25.810Z,2.40
2023-02-23T07:43:57.814Z,2.50
2023-02-23T07:46:27.499Z,2.50
2023-02-23T07:48:56.790Z,2.40
2023-02-23T07:51:26.035Z,2.50
2023-02-23T07:53:55.808Z,2.50
2023-02-23T07:56:25.090Z,2.60
2023-02-23T07:58:54.366Z,2.90
2023-02-23T08:01:25.266Z,3.20
2023-02-23T08:03:54.597Z,3.20
2023-02-23T08:06:23.814Z,3.10
2023-02-23T08:08:53.110Z,3.20
2023-02-23T08:11:22.423Z,3.30
2023-02-23T08:13:51.733Z,3.80
2023-02-23T08:16:21.024Z,3.90
2023-02-23T08:18:51.743Z,3.80
2023-02-23T08:21:21.228Z,4.00
2023-02-23T08:23:50.608Z,4.00
2023-02-23T08:26:19.930Z,4.50
2023-02-23T08:28:49.488Z,4.90
2023-02-23T08:31:21.668Z,5.00
2023-02-23T08:33:52.783Z,4.90
2023-02-23T08:36:22.376Z,4.80
2023-02-23T08:38:52.012Z,5.30
2023-02-23T08:41:21.548Z,5.70
2023-02-23T08:43:51.006Z,5.90
2023-02-23T08:46:20.863Z,5.90
2023-02-23T08:48:51.545Z,6.00
2023-02-23T08:51:21.086Z,5.90
2023-02-23T08:53:50.473Z,6.00
2023-02-23T08:56:20.043Z,6.20
2023-02-23T08:58:49.257Z,5.80
2023-02-23T09:01:19.942Z,5.80
2023-02-23T09:03:49.823Z,5.90
2023-02-23T09:06:23.583Z,6.20
2023-02-23T09:08:54.032Z,6.40
2023-02-23T09:11:23.531Z,6.70
2023-02-23T09:13:52.775Z,6.50
2023-02-23T09:16:22.126Z,6.60
2023-02-23T09:18:52.029Z,6.60
2023-02-23T09:21:25.605Z,7.00
2023-02-23T09:23:56.476Z,6.80
2023-02-23T09:26:26.534Z,6.60
2023-02-23T09:28:55.819Z,6.40
2023-02-23T09:31:25.996Z,6.70
2023-02-23T09:33:56.031Z,7.10
2023-02-23T09:36:28.361Z,7.10
2023-02-23T09:38:58.301Z,6.90
2023-02-23T09:41:55.499Z,6.70
2023-02-23T09:44:36.762Z,6.90
2023-02-23T09:47:23.049Z,6.70
2023-02-23T09:49:53.686Z,6.30
2023-02-23T09:52:29.185Z,6.40
2023-02-23T09:55:00.363Z,6.40
2023-02-23T09:57:38.919Z,6.40
2023-02-23T10:00:18.374Z,6.40
2023-02-23T10:03:25.235Z,6.30
2023-02-23T10:05:59.325Z,6.30
2023-02-23T10:08:44.604Z,6.50
2023-02-23T10:11:25.469Z,6.40
2023-02-23T10:14:10.098Z,6.60
2023-02-23T10:16:51.567Z,6.60
2023-02-23T10:19:28.864Z,6.80
2023-02-23T10:22:01.379Z,7.00
2023-02-23T10:24:35.648Z,7.00
2023-02-23T10:27:12.072Z,6.90
2023-02-23T10:29:44.783Z,6.80
2023-02-23T10:32:22.686Z,6.60
2023-02-23T10:34:57.009Z,6.60
2023-02-23T10:37:27.618Z,6.50
2023-02-23T10:39:58.674Z,6.20
2023-02-23T10:42:30.215Z,5.80
2023-02-23T10:45:00.689Z,5.70
2023-02-23T10:47:33.247Z,5.50
2023-02-23T10:50:03.678Z,5.50
2023-02-23T10:52:41.533Z,5.70
2023-02-23T10:55:25.519Z,6.00
2023-02-23T10:58:06.000Z,6.10
2023-02-23T11:00:37.259Z,6.50
2023-02-23T11:03:20.523Z,6.80
2023-02-23T11:05:53.395Z,7.00
2023-02-23T11:08:26.547Z,7.00
2023-02-23T11:11:21.868Z,7.20
2023-02-23T11:13:52.696Z,7.10
2023-02-23T11:16:23.788Z,7.00
2023-02-23T11:18:56.109Z,6.80
2023-02-23T11:21:29.660Z,6.60
2023-02-23T11:24:02.697Z,6.80
2023-02-23T11:26:38.804Z,6.90
2023-02-23T11:29:17.258Z,6.70
2023-02-23T11:31:51.358Z,6.80
2023-02-23T11:34:31.805Z,6.90
2023-02-23T11:37:04.465Z,7.00
2023-02-23T11:39:33.847Z,7.10
2023-02-23T11:42:19.591Z,7.10
2023-02-23T11:44:54.148Z,7.30
2023-02-23T11:47:26.352Z,7.40
2023-02-23T11:49:56.520Z,7.30
2023-02-23T11:52:28.177Z,7.30
2023-02-23T11:55:00.164Z,7.00
2023-02-23T11:57:33.899Z,7.00
2023-02-23T12:00:11.422Z,7.00
2023-02-23T12:02:52.613Z,6.70
2023-02-23T12:05:25.590Z,6.80
2023-02-23T12:08:01.426Z,6.80
2023-02-23T12:10:36.146Z,7.00
2023-02-23T12:13:19.027Z,6.80
2023-02-23T12:15:53.434Z,6.90
2023-02-23T12:18:39.067Z,7.00
2023-02-23T12:21:19.790Z,7.10
2023-02-23T12:23:52.860Z,7.00
2023-02-23T12:26:25.175Z,6.90
2023-02-23T12:29:02.782Z,7.00
2023-02-23T12:31:44.681Z,7.10
2023-02-23T12:34:19.478Z,7.20
2023-02-23T12:36:56.858Z,7.10
2023-02-23T12:39:32.707Z,7.20
2023-02-23T12:42:09.600Z,7.20
2023-02-23T12:44:46.092Z,7.30
2023-02-23T12:47:26.208Z,7.30
2023-02-23T12:50:07.821Z,7.50
2023-02-23T12:52:42.492Z,7.60
2023-02-23T12:55:13.829Z,7.70
2023-02-23T12:57:50.299Z,7.70
2023-02-23T13:00:41.670Z,7.50
2023-02-23T13:03:40.462Z,7.40
2023-02-23T13:06:15.903Z,7.30
2023-02-23T13:09:04.112Z,7.10
2023-02-23T13:12:06.539Z,7.20
2023-02-23T13:14:43.366Z,7.00
2023-02-23T13:17:30.399Z,7.00
2023-02-23T13:20:03.726Z,7.10
2023-02-23T13:22:39.332Z,7.10
2023-02-23T13:25:22.480Z,7.20
2023-02-23T13:27:56.964Z,7.20
2023-02-23T13:30:26.338Z,7.30
2023-02-23T13:32:58.457Z,7.30
2023-02-23T13:35:29.317Z,7.20
2023-02-23T13:38:06.049Z,7.30
2023-02-23T13:40:42.463Z,7.20
2023-02-23T13:43:23.333Z,7.20
2023-02-23T13:46:16.635Z,7.10
2023-02-23T13:48:58.008Z,7.10
2023-02-23T13:51:38.397Z,7.20
2023-02-23T13:54:25.454Z,7.30
2023-02-23T13:56:58.641Z,7.20
2023-02-23T13:59:30.901Z,7.30
2023-02-23T14:02:04.098Z,7.10
2023-02-23T14:04:42.701Z,7.20
2023-02-23T14:07:23.104Z,7.30
2023-02-23T14:09:57.184Z,7.10
2023-02-23T14:12:28.622Z,7.20
2023-02-23T14:14:58.015Z,7.20
2023-02-23T14:17:56.777Z,7.10
2023-02-23T14:20:46.437Z,7.10
2023-02-23T14:23:34.605Z,7.20
2023-02-23T14:26:16.698Z,7.10
2023-02-23T14:28:49.417Z,7.10
2023-02-23T14:31:23.276Z,7.10
2023-02-23T14:33:59.147Z,7.10
2023-02-23T14:36:38.304Z,7.10
2023-02-23T14:39:11.857Z,7.10
2023-02-23T14:41:50.361Z,7.20
2023-02-23T14:44:31.157Z,7.30
2023-02-23T14:47:04.556Z,7.30
2023-02-23T14:49:39.280Z,7.20
2023-02-23T14:52:14.772Z,7.30
2023-02-23T14:54:44.056Z,7.20
2023-02-23T14:57:21.515Z,7.10
2023-02-23T14:59:58.029Z,7.30
2023-02-23T15:02:28.691Z,7.30
2023-02-23T15:04:58.146Z,7.20
2023-02-23T15:07:33.971Z,7.20
2023-02-23T15:10:05.686Z,7.20
2023-02-23T15:12:38.639Z,7.20
2023-02-23T15:15:17.213Z,7.20
2023-02-23T15:17:49.678Z,7.00
2023-02-23T15:20:23.634Z,7.10
2023-02-23T15:22:57.821Z,7.00
2023-02-23T15:25:35.383Z,6.90
2023-02-23T15:28:23.832Z,6.90
2023-02-23T15:30:54.377Z,6.90
2023-02-23T15:33:28.748Z,6.90
2023-02-23T15:36:07.757Z,6.90
2023-02-23T15:38:44.664Z,6.80
2023-02-23T15:41:21.693Z,6.70
2023-02-23T15:43:51.173Z,6.70
2023-02-23T15:46:26.371Z,6.60
2023-02-23T15:48:57.170Z,6.60
2023-02-23T15:51:34.171Z,6.40
2023-02-23T15:56:47.347Z,6.40
2023-02-23T15:59:24.096Z,6.30
2023-02-23T16:01:56.179Z,6.40
2023-02-23T16:04:32.789Z,6.40
2023-02-23T16:07:13.410Z,6.30
2023-02-23T16:09:52.288Z,6.20
2023-02-23T16:12:25.335Z,6.20
2023-02-23T16:14:57.491Z,6.10
2023-02-23T16:17:29.511Z,6.10
2023-02-23T16:20:09.456Z,6.10
2023-02-23T16:22:41.541Z,6.10
2023-02-23T16:25:16.130Z,6.00
2023-02-23T16:27:47.109Z,6.00
2023-02-23T16:30:23.935Z,6.00
2023-02-23T16:33:08.118Z,5.90
2023-02-23T16:35:43.890Z,5.80
2023-02-23T16:38:16.389Z,5.90
2023-02-23T16:40:49.121Z,5.90
2023-02-23T16:43:18.853Z,5.80
2023-02-23T16:45:48.624Z,5.80
2023-02-23T16:48:21.021Z,5.80
2023-02-23T16:50:51.694Z,5.70
2023-02-23T16:53:23.639Z,5.70
2023-02-23T16:55:57.994Z,5.70
2023-02-23T16:58:31.293Z,5.60
2023-02-23T17:01:00.805Z,5.50
2023-02-23T17:03:32.639Z,5.50
2023-02-23T17:06:03.906Z,5.60
2023-02-23T17:08:35.796Z,5.60
2023-02-23T17:11:08.622Z,5.60
2023-02-23T17:13:38.609Z,5.50
2023-02-23T17:16:13.594Z,5.40
2023-02-23T17:18:45.200Z,5.40
2023-02-23T17:21:16.304Z,5.50
2023-02-23T17:23:51.719Z,5.40
2023-02-23T17:26:25.617Z,5.30
2023-02-23T17:28:56.898Z,5.40
2023-02-23T17:31:27.615Z,5.30
2023-02-23T17:33:57.410Z,5.30
2023-02-23T17:36:28.199Z,5.20
2023-02-23T17:38:59.538Z,5.20
2023-02-23T17:41:32.843Z,5.20
2023-02-23T17:44:03.335Z,5.20
2023-02-23T17:46:34.141Z,5.10
2023-02-23T17:49:05.283Z,5.20
2023-02-23T17:51:35.806Z,5.10
2023-02-23T17:54:06.697Z,5.20
2023-02-23T17:56:40.687Z,5.20
2023-02-23T17:59:11.699Z,5.20
2023-02-23T18:01:42.515Z,5.10
2023-02-23T18:04:14.533Z,5.10
2023-02-23T18:06:45.942Z,5.00
2023-02-23T18:09:18.884Z,5.10
2023-02-23T18:11:52.062Z,5.00
2023-02-23T18:14:24.553Z,5.00
2023-02-23T18:16:56.550Z,5.00
2023-02-23T18:19:28.954Z,5.10
2023-02-23T18:22:00.894Z,5.20
2023-02-23T18:24:33.282Z,5.20
2023-02-23T18:27:06.544Z,5.20
2023-02-23T18:29:41.170Z,5.10
2023-02-23T18:32:14.871Z,5.20
2023-02-23T18:34:45.977Z,5.20
2023-02-23T18:37:22.276Z,5.20
2023-02-23T18:39:57.874Z,5.20
2023-02-23T18:42:32.474Z,5.20
2023-02-23T18:45:06.500Z,5.10
2023-02-23T18:47:39.414Z,5.10
2023-02-23T18:50:13.765Z,5.10
2023-02-23T18:52:47.698Z,5.00
2023-02-23T18:55:21.329Z,5.00
2023-02-23T18:57:55.982Z,5.00
2023-02-23T19:00:29.173Z,5.10
2023-02-23T19:03:01.712Z,5.10
2023-02-23T19:05:34.114Z,5.10
2023-02-23T19:08:10.496Z,5.10
2023-02-23T19:10:43.246Z,5.10
2023-02-23T19:13:22.640Z,5.10
2023-02-23T19:15:55.202Z,5.10
2023-02-23T19:18:28.529Z,5.00
2023-02-23T19:21:01.531Z,5.00
2023-02-23T19:23:39.266Z,5.00
2023-02-23T19:26:13.112Z,5.00
2023-02-23T19:28:45.580Z,5.10
2023-02-23T19:31:23.234Z,5.10
2023-02-23T19:33:55.629Z,5.10
2023-02-23T19:36:33.051Z,5.10
2023-02-23T19:39:10.949Z,5.10
2023-02-23T19:41:48.007Z,5.10
2023-02-23T19:44:20.992Z,5.10
2023-02-23T19:46:52.338Z,5.00
2023-02-23T19:49:23.798Z,5.00
2023-02-23T19:51:58.109Z,5.00
2023-02-23T19:54:29.585Z,5.00
2023-02-23T19:57:00.997Z,5.10
2023-02-23T19:59:34.914Z,5.00
2023-02-23T20:02:06.935Z,4.90
2023-02-23T20:04:39.122Z,4.90
2023-02-23T20:07:12.396Z,4.80
2023-02-23T20:09:45.221Z,5.00
2023-02-23T20:15:04.873Z,5.00
2023-02-23T20:17:41.070Z,4.90
2023-02-23T20:20:18.272Z,4.90
2023-02-23T20:22:55.220Z,4.90
2023-02-23T20:25:30.206Z,4.90
2023-02-23T20:28:05.401Z,4.90
2023-02-23T20:30:39.129Z,4.90
2023-02-23T20:33:16.055Z,4.90
2023-02-23T20:35:51.441Z,4.90
2023-02-23T20:38:24.937Z,4.90
2023-02-23T20:40:57.052Z,4.90
2023-02-23T20:43:28.815Z,4.90
2023-02-23T20:46:03.810Z,4.80
2023-02-23T20:48:36.910Z,4.70
2023-02-23T20:51:13.801Z,4.80
2023-02-23T20:53:47.421Z,4.80
2023-02-23T20:56:24.538Z,4.80
2023-02-23T20:58:59.023Z,4.70
2023-02-23T21:01:34.908Z,4.70
2023-02-23T21:04:07.427Z,4.70
2023-02-23T21:06:39.642Z,4.60
2023-02-23T21:09:20.526Z,4.50
2023-02-23T21:11:51.960Z,4.50
2023-02-23T21:14:22.909Z,4.50
2023-02-23T21:16:55.439Z,4.50
2023-02-23T21:19:26.363Z,4.60
2023-02-23T21:21:59.324Z,4.60
2023-02-23T21:24:35.424Z,4.70
2023-02-23T21:27:06.611Z,4.50
2023-02-23T21:29:36.749Z,4.50
2023-02-23T21:32:11.233Z,4.50
2023-02-23T21:34:42.470Z,4.50
2023-02-23T21:37:13.001Z,4.60
2023-02-23T21:39:43.390Z,4.60
2023-02-23T21:42:13.705Z,4.60
2023-02-23T21:44:46.057Z,4.50
2023-02-23T21:47:18.206Z,4.40
2023-02-23T21:49:49.652Z,4.50
2023-02-23T21:52:19.516Z,4.40
2023-02-23T21:54:52.572Z,4.40
2023-02-23T21:57:23.142Z,4.50
2023-02-23T21:59:52.832Z,4.50
2023-02-23T22:02:23.683Z,4.50
2023-02-23T22:04:53.266Z,4.50
2023-02-23T22:07:22.759Z,4.40
2023-02-23T22:09:52.061Z,4.30
2023-02-23T22:12:21.342Z,4.40
2023-02-23T22:14:50.954Z,4.40
2023-02-23T22:17:20.466Z,4.50
2023-02-23T22:19:55.317Z,4.40
2023-02-23T22:22:25.094Z,4.40
2023-02-23T22:24:54.403Z,4.40
2023-02-23T22:27:23.673Z,4.40
2023-02-23T22:29:54.456Z,4.40
2023-02-23T22:32:27.358Z,4.40
2023-02-23T22:34:58.389Z,4.30
2023-02-23T22:37:30.082Z,4.20
2023-02-23T22:40:01.564Z,4.30
2023-02-23T22:42:35.601Z,4.30
2023-02-23T22:45:06.463Z,4.30
2023-02-23T22:47:36.244Z,4.40
2023-02-23T22:50:08.480Z,4.30
2023-02-23T22:52:37.818Z,4.30
2023-02-23T22:55:08.219Z,4.30
2023-02-23T22:57:37.624Z,4.30
2023-02-23T23:00:10.566Z,4.40
2023-02-23T23:02:40.125Z,4.40
2023-02-23T23:05:13.572Z,4.40
2023-02-23T23:07:43.131Z,4.40
2023-02-23T23:10:13.739Z,4.40
2023-02-23T23:12:43.691Z,4.40
2023-02-23T23:15:17.583Z,4.30
2023-02-23T23:17:48.678Z,4.30
2023-02-23T23:20:25.920Z,4.30
2023-02-23T23:22:57.356Z,4.40
2023-02-23T23:25:29.110Z,4.40
2023-02-23T23:27:58.855Z,4.30
2023-02-23T23:30:29.586Z,4.40
2023-02-23T23:33:00.593Z,4.40
2023-02-23T23:35:34.610Z,4.30
2023-02-23T23:38:04.072Z,4.30
2023-02-23T23:40:35.979Z,4.30
2023-02-23T23:43:07.768Z,4.40
2023-02-23T23:45:40.950Z,4.40
2023-02-23T23:48:10.441Z,4.40
2023-02-23T23:50:41.230Z,4.50
2023-02-23T23:53:10.763Z,4.50
2023-02-23T23:55:40.539Z,4.50
2023-02-23T23:58:09.812Z,4.50
